sensor_id;sensor_type;location;lat;lon;timestamp;P1;durP1;ratioP1;P2;durP2;ratioP2
15667;SDS011;7934;48.710;9.024;2023-02-24T00:01:01;52.50;;;24.03;;
15667;SDS011;7934;48.710;9.024;2023-02-24T00:03:36;52.17;;;23.50;;
15667;SDS011;7934;48.710;9.024;2023-02-24T00:06:03;49.53;;;24.73;;
15667;SDS011;7934;48.710;9.024;2023-02-24T00:08:36;42.47;;;23.93;;
15667;SDS011;7934;48.710;9.024;2023-02-24T00:11:08;50.53;;;24.77;;
15667;SDS011;7934;48.710;9.024;2023-02-24T00:13:38;51.90;;;23.90;;
15667;SDS011;7934;48.710;9.024;2023-02-24T00:16:10;45.60;;;22.80;;
15667;SDS011;7934;48.710;9.024;2023-02-24T00:18:38;45.40;;;23.63;;
15667;SDS011;7934;48.710;9.024;2023-02-24T00:21:05;46.03;;;22.90;;
15667;SDS011;7934;48.710;9.024;2023-02-24T00:23:34;48.30;;;22.80;;
15667;SDS011;7934;48.710;9.024;2023-02-24T00:26:03;43.53;;;23.77;;
15667;SDS011;7934;48.710;9.024;2023-02-24T00:28:30;49.37;;;23.80;;
15667;SDS011;7934;48.710;9.024;2023-02-24T00:31:02;49.97;;;24.57;;
15667;SDS011;7934;48.710;9.024;2023-02-24T00:33:29;57.30;;;24.10;;
15667;SDS011;7934;48.710;9.024;2023-02-24T00:36:03;52.87;;;26.33;;
15667;SDS011;7934;48.710;9.024;2023-02-24T00:38:30;55.07;;;26.27;;
15667;SDS011;7934;48.710;9.024;2023-02-24T00:41:00;48.67;;;27.10;;
15667;SDS011;7934;48.710;9.024;2023-02-24T00:43:27;68.10;;;27.90;;
15667;SDS011;7934;48.710;9.024;2023-02-24T00:45:54;60.73;;;27.60;;
15667;SDS011;7934;48.710;9.024;2023-02-24T00:48:23;69.07;;;27.10;;
15667;SDS011;7934;48.710;9.024;2023-02-24T00:50:52;69.37;;;27.33;;
15667;SDS011;7934;48.710;9.024;2023-02-24T00:53:19;66.43;;;27.33;;
15667;SDS011;7934;48.710;9.024;2023-02-24T00:55:46;55.43;;;23.67;;
15667;SDS011;7934;48.710;9.024;2023-02-24T00:58:14;48.67;;;21.13;;
15667;SDS011;7934;48.710;9.024;2023-02-24T01:00:43;50.97;;;20.50;;
15667;SDS011;7934;48.710;9.024;2023-02-24T01:03:11;44.23;;;19.67;;
15667;SDS011;7934;48.710;9.024;2023-02-24T01:05:40;46.03;;;20.17;;
15667;SDS011;7934;48.710;9.024;2023-02-24T01:08:07;51.53;;;21.13;;
15667;SDS011;7934;48.710;9.024;2023-02-24T01:10:34;49.73;;;22.13;;
15667;SDS011;7934;48.710;9.024;2023-02-24T01:13:01;50.23;;;20.33;;
15667;SDS011;7934;48.710;9.024;2023-02-24T01:15:27;47.37;;;20.33;;
15667;SDS011;7934;48.710;9.024;2023-02-24T01:17:54;59.83;;;23.13;;
15667;SDS011;7934;48.710;9.024;2023-02-24T01:20:21;48.67;;;21.00;;
15667;SDS011;7934;48.710;9.024;2023-02-24T01:22:50;53.80;;;24.23;;
15667;SDS011;7934;48.710;9.024;2023-02-24T01:25:19;65.80;;;32.80;;
15667;SDS011;7934;48.710;9.024;2023-02-24T01:27:46;61.37;;;30.53;;
15667;SDS011;7934;48.710;9.024;2023-02-24T01:30:14;74.90;;;33.73;;
15667;SDS011;7934;48.710;9.024;2023-02-24T01:32:42;71.10;;;32.37;;
15667;SDS011;7934;48.710;9.024;2023-02-24T01:35:10;71.30;;;32.00;;
15667;SDS011;7934;48.710;9.024;2023-02-24T01:37:38;67.60;;;30.87;;
15667;SDS011;7934;48.710;9.024;2023-02-24T01:40:09;67.97;;;31.73;;
15667;SDS011;7934;48.710;9.024;2023-02-24T01:42:42;63.33;;;31.37;;
15667;SDS011;7934;48.710;9.024;2023-02-24T01:45:15;58.23;;;28.50;;
15667;SDS011;7934;48.710;9.024;2023-02-24T01:47:42;65.20;;;29.23;;
15667;SDS011;7934;48.710;9.024;2023-02-24T01:50:11;60.23;;;28.90;;
15667;SDS011;7934;48.710;9.024;2023-02-24T01:52:39;56.13;;;27.30;;
15667;SDS011;7934;48.710;9.024;2023-02-24T01:55:07;56.60;;;29.43;;
15667;SDS011;7934;48.710;9.024;2023-02-24T01:57:38;59.63;;;28.87;;
15667;SDS011;7934;48.710;9.024;2023-02-24T02:00:09;58.37;;;29.90;;
15667;SDS011;7934;48.710;9.024;2023-02-24T02:02:54;63.30;;;30.27;;
15667;SDS011;7934;48.710;9.024;2023-02-24T02:05:24;64.30;;;30.30;;
15667;SDS011;7934;48.710;9.024;2023-02-24T02:07:52;65.13;;;31.13;;
15667;SDS011;7934;48.710;9.024;2023-02-24T02:10:19;62.93;;;30.50;;
15667;SDS011;7934;48.710;9.024;2023-02-24T02:12:48;62.03;;;31.17;;
15667;SDS011;7934;48.710;9.024;2023-02-24T02:15:16;63.77;;;29.13;;
15667;SDS011;7934;48.710;9.024;2023-02-24T02:17:48;71.63;;;32.00;;
15667;SDS011;7934;48.710;9.024;2023-02-24T02:20:27;68.80;;;31.00;;
15667;SDS011;7934;48.710;9.024;2023-02-24T02:23:25;66.07;;;32.07;;
15667;SDS011;7934;48.710;9.024;2023-02-24T02:26:04;75.13;;;31.93;;
15667;SDS011;7934;48.710;9.024;2023-02-24T02:31:24;61.23;;;29.90;;
15667;SDS011;7934;48.710;9.024;2023-02-24T02:36:38;67.03;;;29.40;;
15667;SDS011;7934;48.710;9.024;2023-02-24T02:39:09;67.03;;;30.93;;
15667;SDS011;7934;48.710;9.024;2023-02-24T02:41:41;60.80;;;30.07;;
15667;SDS011;7934;48.710;9.024;2023-02-24T02:44:10;60.20;;;29.97;;
15667;SDS011;7934;48.710;9.024;2023-02-24T02:46:41;70.53;;;31.77;;
15667;SDS011;7934;48.710;9.024;2023-02-24T02:49:12;68.43;;;29.80;;
15667;SDS011;7934;48.710;9.024;2023-02-24T02:51:44;62.17;;;29.20;;
15667;SDS011;7934;48.710;9.024;2023-02-24T02:54:16;63.27;;;30.87;;
15667;SDS011;7934;48.710;9.024;2023-02-24T02:56:45;66.93;;;29.60;;
15667;SDS011;7934;48.710;9.024;2023-02-24T02:59:15;66.30;;;29.53;;
15667;SDS011;7934;48.710;9.024;2023-02-24T03:01:46;65.97;;;30.87;;
15667;SDS011;7934;48.710;9.024;2023-02-24T03:04:15;68.90;;;28.40;;
15667;SDS011;7934;48.710;9.024;2023-02-24T03:06:51;66.47;;;29.37;;
15667;SDS011;7934;48.710;9.024;2023-02-24T03:09:19;72.83;;;30.90;;
15667;SDS011;7934;48.710;9.024;2023-02-24T03:11:51;63.33;;;29.20;;
15667;SDS011;7934;48.710;9.024;2023-02-24T03:14:22;57.70;;;28.20;;
15667;SDS011;7934;48.710;9.024;2023-02-24T03:16:52;59.27;;;30.50;;
15667;SDS011;7934;48.710;9.024;2023-02-24T03:19:21;63.47;;;29.00;;
15667;SDS011;7934;48.710;9.024;2023-02-24T03:21:54;62.97;;;29.43;;
15667;SDS011;7934;48.710;9.024;2023-02-24T03:24:23;68.17;;;30.70;;
15667;SDS011;7934;48.710;9.024;2023-02-24T03:26:52;63.17;;;29.40;;
15667;SDS011;7934;48.710;9.024;2023-02-24T03:29:23;64.07;;;30.63;;
15667;SDS011;7934;48.710;9.024;2023-02-24T03:31:55;68.90;;;29.37;;
15667;SDS011;7934;48.710;9.024;2023-02-24T03:34:29;74.73;;;30.67;;
15667;SDS011;7934;48.710;9.024;2023-02-24T03:37:04;71.27;;;31.60;;
15667;SDS011;7934;48.710;9.024;2023-02-24T03:39:31;66.57;;;30.50;;
15667;SDS011;7934;48.710;9.024;2023-02-24T03:41:59;72.30;;;32.80;;
15667;SDS011;7934;48.710;9.024;2023-02-24T03:44:27;80.03;;;33.83;;
15667;SDS011;7934;48.710;9.024;2023-02-24T03:46:54;82.20;;;31.70;;
15667;SDS011;7934;48.710;9.024;2023-02-24T03:49:22;72.37;;;31.97;;
15667;SDS011;7934;48.710;9.024;2023-02-24T03:51:51;74.20;;;32.03;;
15667;SDS011;7934;48.710;9.024;2023-02-24T03:54:27;65.63;;;31.73;;
15667;SDS011;7934;48.710;9.024;2023-02-24T03:57:07;72.43;;;33.10;;
15667;SDS011;7934;48.710;9.024;2023-02-24T03:59:41;71.17;;;32.93;;
15667;SDS011;7934;48.710;9.024;2023-02-24T04:02:13;71.33;;;32.13;;
15667;SDS011;7934;48.710;9.024;2023-02-24T04:04:42;70.50;;;32.53;;
15667;SDS011;7934;48.710;9.024;2023-02-24T04:07:12;80.23;;;33.87;;
15667;SDS011;7934;48.710;9.024;2023-02-24T04:09:43;79.47;;;35.80;;
15667;SDS011;7934;48.710;9.024;2023-02-24T04:12:15;78.80;;;34.40;;
15667;SDS011;7934;48.710;9.024;2023-02-24T04:14:46;83.37;;;33.80;;
15667;SDS011;7934;48.710;9.024;2023-02-24T04:17:15;88.60;;;36.30;;
15667;SDS011;7934;48.710;9.024;2023-02-24T04:19:45;93.93;;;36.60;;
15667;SDS011;7934;48.710;9.024;2023-02-24T04:22:14;144.70;;;39.77;;
15667;SDS011;7934;48.710;9.024;2023-02-24T04:24:45;110.00;;;36.80;;
15667;SDS011;7934;48.710;9.024;2023-02-24T04:27:13;143.07;;;39.80;;
15667;SDS011;7934;48.710;9.024;2023-02-24T04:29:42;157.53;;;39.20;;
15667;SDS011;7934;48.710;9.024;2023-02-24T04:32:12;187.40;;;41.80;;
15667;SDS011;7934;48.710;9.024;2023-02-24T04:34:40;243.37;;;44.00;;
15667;SDS011;7934;48.710;9.024;2023-02-24T04:37:07;192.53;;;39.67;;
15667;SDS011;7934;48.710;9.024;2023-02-24T04:39:34;211.43;;;44.33;;
15667;SDS011;7934;48.710;9.024;2023-02-24T04:42:04;288.03;;;45.97;;
15667;SDS011;7934;48.710;9.024;2023-02-24T04:44:31;310.43;;;45.53;;
15667;SDS011;7934;48.710;9.024;2023-02-24T04:46:59;213.13;;;42.00;;
15667;SDS011;7934;48.710;9.024;2023-02-24T04:49:27;300.30;;;43.67;;
15667;SDS011;7934;48.710;9.024;2023-02-24T04:51:55;376.40;;;49.10;;
15667;SDS011;7934;48.710;9.024;2023-02-24T04:54:22;450.63;;;50.90;;
15667;SDS011;7934;48.710;9.024;2023-02-24T04:56:49;442.03;;;51.87;;
15667;SDS011;7934;48.710;9.024;2023-02-24T04:59:20;333.40;;;47.53;;
15667;SDS011;7934;48.710;9.024;2023-02-24T05:01:48;332.63;;;45.93;;
15667;SDS011;7934;48.710;9.024;2023-02-24T05:04:16;368.73;;;43.67;;
15667;SDS011;7934;48.710;9.024;2023-02-24T05:06:44;351.27;;;44.83;;
15667;SDS011;7934;48.710;9.024;2023-02-24T05:09:12;403.53;;;46.67;;
15667;SDS011;7934;48.710;9.024;2023-02-24T05:11:42;480.07;;;52.03;;
15667;SDS011;7934;48.710;9.024;2023-02-24T05:14:10;638.63;;;62.17;;
15667;SDS011;7934;48.710;9.024;2023-02-24T05:16:40;506.83;;;55.07;;
15667;SDS011;7934;48.710;9.024;2023-02-24T05:19:08;283.93;;;42.40;;
15667;SDS011;7934;48.710;9.024;2023-02-24T05:21:52;194.17;;;34.70;;
15667;SDS011;7934;48.710;9.024;2023-02-24T05:24:22;430.67;;;49.37;;
15667;SDS011;7934;48.710;9.024;2023-02-24T05:26:49;484.20;;;53.17;;
15667;SDS011;7934;48.710;9.024;2023-02-24T05:29:23;388.87;;;47.87;;
15667;SDS011;7934;48.710;9.024;2023-02-24T05:31:51;390.00;;;46.53;;
15667;SDS011;7934;48.710;9.024;2023-02-24T05:34:19;388.97;;;47.93;;
15667;SDS011;7934;48.710;9.024;2023-02-24T05:36:48;430.13;;;52.77;;
15667;SDS011;7934;48.710;9.024;2023-02-24T05:39:17;413.97;;;50.27;;
15667;SDS011;7934;48.710;9.024;2023-02-24T05:41:45;374.13;;;46.63;;
15667;SDS011;7934;48.710;9.024;2023-02-24T05:44:14;565.87;;;57.77;;
15667;SDS011;7934;48.710;9.024;2023-02-24T05:46:46;305.50;;;43.20;;
15667;SDS011;7934;48.710;9.024;2023-02-24T05:49:15;452.03;;;51.20;;
15667;SDS011;7934;48.710;9.024;2023-02-24T05:51:47;408.17;;;48.83;;
15667;SDS011;7934;48.710;9.024;2023-02-24T05:54:18;464.60;;;52.90;;
15667;SDS011;7934;48.710;9.024;2023-02-24T05:56:46;228.63;;;39.40;;
15667;SDS011;7934;48.710;9.024;2023-02-24T05:59:14;337.20;;;43.60;;
15667;SDS011;7934;48.710;9.024;2023-02-24T06:01:45;195.03;;;39.07;;
15667;SDS011;7934;48.710;9.024;2023-02-24T06:04:15;203.30;;;40.13;;
15667;SDS011;7934;48.710;9.024;2023-02-24T06:06:52;142.67;;;34.97;;
15667;SDS011;7934;48.710;9.024;2023-02-24T06:09:19;155.80;;;37.30;;
15667;SDS011;7934;48.710;9.024;2023-02-24T06:11:48;104.27;;;34.57;;
15667;SDS011;7934;48.710;9.024;2023-02-24T06:14:15;117.93;;;35.53;;
15667;SDS011;7934;48.710;9.024;2023-02-24T06:16:42;104.63;;;33.33;;
15667;SDS011;7934;48.710;9.024;2023-02-24T06:19:10;103.83;;;33.83;;
15667;SDS011;7934;48.710;9.024;2023-02-24T06:21:40;115.50;;;33.57;;
15667;SDS011;7934;48.710;9.024;2023-02-24T06:24:09;124.30;;;35.83;;
15667;SDS011;7934;48.710;9.024;2023-02-24T06:26:38;139.90;;;35.90;;
15667;SDS011;7934;48.710;9.024;2023-02-24T06:29:09;178.03;;;36.63;;
15667;SDS011;7934;48.710;9.024;2023-02-24T06:31:37;157.90;;;36.10;;
15667;SDS011;7934;48.710;9.024;2023-02-24T06:34:05;238.70;;;38.73;;
15667;SDS011;7934;48.710;9.024;2023-02-24T06:36:34;236.07;;;39.20;;
15667;SDS011;7934;48.710;9.024;2023-02-24T06:39:03;313.57;;;40.73;;
15667;SDS011;7934;48.710;9.024;2023-02-24T06:41:37;155.00;;;36.00;;
15667;SDS011;7934;48.710;9.024;2023-02-24T06:44:05;145.23;;;35.77;;
15667;SDS011;7934;48.710;9.024;2023-02-24T06:46:34;151.50;;;36.07;;
15667;SDS011;7934;48.710;9.024;2023-02-24T06:49:01;150.00;;;38.47;;
15667;SDS011;7934;48.710;9.024;2023-02-24T06:51:29;117.70;;;36.97;;
15667;SDS011;7934;48.710;9.024;2023-02-24T06:53:56;163.10;;;38.10;;
15667;SDS011;7934;48.710;9.024;2023-02-24T06:56:25;95.70;;;35.60;;
15667;SDS011;7934;48.710;9.024;2023-02-24T06:58:53;92.97;;;34.53;;
15667;SDS011;7934;48.710;9.024;2023-02-24T07:01:21;101.10;;;34.70;;
15667;SDS011;7934;48.710;9.024;2023-02-24T07:03:50;110.90;;;36.80;;
15667;SDS011;7934;48.710;9.024;2023-02-24T07:06:43;158.73;;;38.37;;
15667;SDS011;7934;48.710;9.024;2023-02-24T07:09:12;200.80;;;40.13;;
15667;SDS011;7934;48.710;9.024;2023-02-24T07:11:42;228.33;;;41.37;;
15667;SDS011;7934;48.710;9.024;2023-02-24T07:14:10;315.33;;;45.63;;
15667;SDS011;7934;48.710;9.024;2023-02-24T07:16:38;228.40;;;41.83;;
15667;SDS011;7934;48.710;9.024;2023-02-24T07:19:10;160.43;;;37.83;;
15667;SDS011;7934;48.710;9.024;2023-02-24T07:21:38;224.10;;;41.17;;
15667;SDS011;7934;48.710;9.024;2023-02-24T07:24:07;148.53;;;37.43;;
15667;SDS011;7934;48.710;9.024;2023-02-24T07:26:37;144.87;;;38.23;;
15667;SDS011;7934;48.710;9.024;2023-02-24T07:29:09;119.83;;;36.67;;
15667;SDS011;7934;48.710;9.024;2023-02-24T07:31:36;130.57;;;37.87;;
15667;SDS011;7934;48.710;9.024;2023-02-24T07:34:06;101.13;;;37.03;;
15667;SDS011;7934;48.710;9.024;2023-02-24T07:36:33;90.60;;;34.87;;
15667;SDS011;7934;48.710;9.024;2023-02-24T07:39:13;81.07;;;35.57;;
15667;SDS011;7934;48.710;9.024;2023-02-24T07:41:40;87.50;;;34.97;;
15667;SDS011;7934;48.710;9.024;2023-02-24T07:44:12;76.97;;;34.77;;
15667;SDS011;7934;48.710;9.024;2023-02-24T07:46:39;83.00;;;33.00;;
15667;SDS011;7934;48.710;9.024;2023-02-24T07:49:08;75.83;;;33.90;;
15667;SDS011;7934;48.710;9.024;2023-02-24T07:51:37;85.07;;;34.10;;
15667;SDS011;7934;48.710;9.024;2023-02-24T07:54:04;86.03;;;35.57;;
15667;SDS011;7934;48.710;9.024;2023-02-24T07:56:32;69.07;;;33.10;;
15667;SDS011;7934;48.710;9.024;2023-02-24T07:59:10;61.27;;;28.20;;
15667;SDS011;7934;48.710;9.024;2023-02-24T08:01:41;47.43;;;26.57;;
15667;SDS011;7934;48.710;9.024;2023-02-24T08:04:14;59.87;;;28.53;;
15667;SDS011;7934;48.710;9.024;2023-02-24T08:06:42;59.87;;;27.90;;
15667;SDS011;7934;48.710;9.024;2023-02-24T08:09:10;65.50;;;28.30;;
15667;SDS011;7934;48.710;9.024;2023-02-24T08:11:42;51.53;;;27.03;;
15667;SDS011;7934;48.710;9.024;2023-02-24T08:14:10;71.13;;;30.60;;
15667;SDS011;7934;48.710;9.024;2023-02-24T08:16:38;64.90;;;30.07;;
15667;SDS011;7934;48.710;9.024;2023-02-24T08:19:08;64.47;;;28.97;;
15667;SDS011;7934;48.710;9.024;2023-02-24T08:21:37;66.63;;;30.70;;
15667;SDS011;7934;48.710;9.024;2023-02-24T08:24:05;61.80;;;28.77;;
15667;SDS011;7934;48.710;9.024;2023-02-24T08:26:33;46.47;;;26.00;;
15667;SDS011;7934;48.710;9.024;2023-02-24T08:29:08;48.23;;;25.40;;
15667;SDS011;7934;48.710;9.024;2023-02-24T08:31:35;44.53;;;24.77;;
15667;SDS011;7934;48.710;9.024;2023-02-24T08:34:02;43.83;;;25.63;;
15667;SDS011;7934;48.710;9.024;2023-02-24T08:36:31;43.93;;;24.37;;
15667;SDS011;7934;48.710;9.024;2023-02-24T08:38:58;44.90;;;25.27;;
15667;SDS011;7934;48.710;9.024;2023-02-24T08:41:25;37.33;;;22.83;;
15667;SDS011;7934;48.710;9.024;2023-02-24T08:44:09;44.13;;;25.20;;
15667;SDS011;7934;48.710;9.024;2023-02-24T08:46:36;42.73;;;25.67;;
15667;SDS011;7934;48.710;9.024;2023-02-24T08:49:03;41.93;;;25.13;;
15667;SDS011;7934;48.710;9.024;2023-02-24T08:51:36;44.73;;;25.17;;
15667;SDS011;7934;48.710;9.024;2023-02-24T08:54:08;46.07;;;23.27;;
15667;SDS011;7934;48.710;9.024;2023-02-24T08:56:39;44.83;;;23.73;;
15667;SDS011;7934;48.710;9.024;2023-02-24T08:59:07;47.23;;;22.83;;
15667;SDS011;7934;48.710;9.024;2023-02-24T09:01:53;46.47;;;23.03;;
15667;SDS011;7934;48.710;9.024;2023-02-24T09:04:40;49.27;;;24.23;;
15667;SDS011;7934;48.710;9.024;2023-02-24T09:07:12;49.17;;;24.50;;
15667;SDS011;7934;48.710;9.024;2023-02-24T09:09:40;39.53;;;22.73;;
15667;SDS011;7934;48.710;9.024;2023-02-24T09:12:08;41.70;;;21.97;;
15667;SDS011;7934;48.710;9.024;2023-02-24T09:14:45;42.07;;;21.83;;
15667;SDS011;7934;48.710;9.024;2023-02-24T09:17:13;44.33;;;22.37;;
15667;SDS011;7934;48.710;9.024;2023-02-24T09:19:45;40.40;;;21.67;;
15667;SDS011;7934;48.710;9.024;2023-02-24T09:22:46;39.83;;;21.53;;
15667;SDS011;7934;48.710;9.024;2023-02-24T09:25:27;42.43;;;19.33;;
15667;SDS011;7934;48.710;9.024;2023-02-24T09:28:06;43.13;;;19.40;;
15667;SDS011;7934;48.710;9.024;2023-02-24T09:30:34;35.17;;;18.50;;
15667;SDS011;7934;48.710;9.024;2023-02-24T09:33:06;36.40;;;18.90;;
15667;SDS011;7934;48.710;9.024;2023-02-24T09:35:41;33.77;;;18.13;;
15667;SDS011;7934;48.710;9.024;2023-02-24T09:38:12;36.53;;;18.10;;
15667;SDS011;7934;48.710;9.024;2023-02-24T09:40:42;37.80;;;18.90;;
15667;SDS011;7934;48.710;9.024;2023-02-24T09:43:15;32.47;;;17.20;;
15667;SDS011;7934;48.710;9.024;2023-02-24T09:45:48;27.43;;;14.77;;
15667;SDS011;7934;48.710;9.024;2023-02-24T09:48:20;28.03;;;14.80;;
15667;SDS011;7934;48.710;9.024;2023-02-24T09:50:48;30.53;;;13.43;;
15667;SDS011;7934;48.710;9.024;2023-02-24T09:53:29;23.93;;;12.70;;
15667;SDS011;7934;48.710;9.024;2023-02-24T09:56:04;19.13;;;11.10;;
15667;SDS011;7934;48.710;9.024;2023-02-24T09:58:35;17.63;;;9.20;;
15667;SDS011;7934;48.710;9.024;2023-02-24T10:01:07;14.40;;;9.03;;
15667;SDS011;7934;48.710;9.024;2023-02-24T10:03:46;18.70;;;8.67;;
15667;SDS011;7934;48.710;9.024;2023-02-24T10:06:19;16.97;;;7.20;;
15667;SDS011;7934;48.710;9.024;2023-02-24T10:08:51;14.80;;;7.20;;
15667;SDS011;7934;48.710;9.024;2023-02-24T10:11:19;14.67;;;8.87;;
15667;SDS011;7934;48.710;9.024;2023-02-24T10:13:57;19.30;;;7.93;;
15667;SDS011;7934;48.710;9.024;2023-02-24T10:16:26;11.67;;;7.70;;
15667;SDS011;7934;48.710;9.024;2023-02-24T10:19:09;18.23;;;7.80;;
15667;SDS011;7934;48.710;9.024;2023-02-24T10:21:42;15.30;;;7.03;;
15667;SDS011;7934;48.710;9.024;2023-02-24T10:24:26;18.47;;;7.63;;
15667;SDS011;7934;48.710;9.024;2023-02-24T10:27:00;14.43;;;6.87;;
15667;SDS011;7934;48.710;9.024;2023-02-24T10:32:16;17.47;;;7.30;;
15667;SDS011;7934;48.710;9.024;2023-02-24T10:34:47;15.57;;;7.47;;
15667;SDS011;7934;48.710;9.024;2023-02-24T10:37:15;16.30;;;7.40;;
15667;SDS011;7934;48.710;9.024;2023-02-24T10:39:44;21.47;;;7.80;;
15667;SDS011;7934;48.710;9.024;2023-02-24T10:42:21;16.33;;;7.27;;
15667;SDS011;7934;48.710;9.024;2023-02-24T10:44:49;21.27;;;8.00;;
15667;SDS011;7934;48.710;9.024;2023-02-24T10:47:17;16.53;;;7.47;;
15667;SDS011;7934;48.710;9.024;2023-02-24T10:49:46;14.70;;;7.10;;
15667;SDS011;7934;48.710;9.024;2023-02-24T10:52:22;21.87;;;8.27;;
15667;SDS011;7934;48.710;9.024;2023-02-24T10:55:24;16.10;;;8.50;;
15667;SDS011;7934;48.710;9.024;2023-02-24T10:58:15;18.20;;;10.57;;
15667;SDS011;7934;48.710;9.024;2023-02-24T11:00:52;22.87;;;11.40;;
15667;SDS011;7934;48.710;9.024;2023-02-24T11:03:36;25.63;;;11.43;;
15667;SDS011;7934;48.710;9.024;2023-02-24T11:06:16;24.53;;;12.30;;
15667;SDS011;7934;48.710;9.024;2023-02-24T11:08:57;23.93;;;12.13;;
15667;SDS011;7934;48.710;9.024;2023-02-24T11:11:44;22.77;;;11.90;;
15667;SDS011;7934;48.710;9.024;2023-02-24T11:14:29;24.10;;;12.00;;
15667;SDS011;7934;48.710;9.024;2023-02-24T11:17:22;29.60;;;13.23;;
15667;SDS011;7934;48.710;9.024;2023-02-24T11:19:54;26.77;;;13.10;;
15667;SDS011;7934;48.710;9.024;2023-02-24T11:22:23;31.30;;;13.37;;
15667;SDS011;7934;48.710;9.024;2023-02-24T11:24:53;28.70;;;14.90;;
15667;SDS011;7934;48.710;9.024;2023-02-24T11:27:22;30.80;;;14.67;;
15667;SDS011;7934;48.710;9.024;2023-02-24T11:32:42;33.97;;;14.80;;
15667;SDS011;7934;48.710;9.024;2023-02-24T11:35:16;27.70;;;14.13;;
15667;SDS011;7934;48.710;9.024;2023-02-24T11:37:47;35.40;;;15.17;;
15667;SDS011;7934;48.710;9.024;2023-02-24T11:40:22;23.87;;;14.20;;
15667;SDS011;7934;48.710;9.024;2023-02-24T11:42:53;28.80;;;12.60;;
15667;SDS011;7934;48.710;9.024;2023-02-24T11:45:26;27.87;;;12.83;;
15667;SDS011;7934;48.710;9.024;2023-02-24T11:47:57;28.90;;;13.77;;
15667;SDS011;7934;48.710;9.024;2023-02-24T11:50:28;27.03;;;12.27;;
15667;SDS011;7934;48.710;9.024;2023-02-24T11:52:57;29.77;;;12.63;;
15667;SDS011;7934;48.710;9.024;2023-02-24T11:55:26;29.83;;;12.37;;
15667;SDS011;7934;48.710;9.024;2023-02-24T11:57:57;25.63;;;12.13;;
15667;SDS011;7934;48.710;9.024;2023-02-24T12:00:27;22.37;;;12.63;;
15667;SDS011;7934;48.710;9.024;2023-02-24T12:02:58;24.17;;;11.90;;
15667;SDS011;7934;48.710;9.024;2023-02-24T12:05:26;23.33;;;11.63;;
15667;SDS011;7934;48.710;9.024;2023-02-24T12:08:00;23.47;;;11.57;;
15667;SDS011;7934;48.710;9.024;2023-02-24T12:10:30;19.07;;;10.93;;
15667;SDS011;7934;48.710;9.024;2023-02-24T12:13:01;18.97;;;10.37;;
15667;SDS011;7934;48.710;9.024;2023-02-24T12:15:32;21.17;;;10.03;;
15667;SDS011;7934;48.710;9.024;2023-02-24T12:18:03;19.40;;;10.80;;
15667;SDS011;7934;48.710;9.024;2023-02-24T12:20:32;22.83;;;10.90;;
15667;SDS011;7934;48.710;9.024;2023-02-24T12:23:04;18.23;;;9.93;;
15667;SDS011;7934;48.710;9.024;2023-02-24T12:25:36;18.63;;;9.47;;
15667;SDS011;7934;48.710;9.024;2023-02-24T12:28:13;22.30;;;9.67;;
15667;SDS011;7934;48.710;9.024;2023-02-24T12:30:45;15.50;;;9.17;;
15667;SDS011;7934;48.710;9.024;2023-02-24T12:33:21;24.47;;;10.20;;
15667;SDS011;7934;48.710;9.024;2023-02-24T12:35:53;18.07;;;10.20;;
15667;SDS011;7934;48.710;9.024;2023-02-24T12:38:28;17.73;;;9.70;;
15667;SDS011;7934;48.710;9.024;2023-02-24T12:41:03;19.20;;;9.80;;
15667;SDS011;7934;48.710;9.024;2023-02-24T12:43:37;19.97;;;8.80;;
15667;SDS011;7934;48.710;9.024;2023-02-24T12:46:12;22.13;;;8.77;;
15667;SDS011;7934;48.710;9.024;2023-02-24T12:48:50;16.03;;;8.10;;
15667;SDS011;7934;48.710;9.024;2023-02-24T12:51:23;20.97;;;8.53;;
15667;SDS011;7934;48.710;9.024;2023-02-24T12:53:56;21.53;;;8.70;;
15667;SDS011;7934;48.710;9.024;2023-02-24T12:56:25;13.53;;;8.00;;
15667;SDS011;7934;48.710;9.024;2023-02-24T12:58:56;17.70;;;8.07;;
15667;SDS011;7934;48.710;9.024;2023-02-24T13:01:26;20.47;;;8.50;;
15667;SDS011;7934;48.710;9.024;2023-02-24T13:04:03;19.90;;;8.53;;
15667;SDS011;7934;48.710;9.024;2023-02-24T13:06:39;21.80;;;7.63;;
15667;SDS011;7934;48.710;9.024;2023-02-24T13:09:10;14.67;;;7.70;;
15667;SDS011;7934;48.710;9.024;2023-02-24T13:11:41;25.27;;;7.73;;
15667;SDS011;7934;48.710;9.024;2023-02-24T13:14:15;17.33;;;8.17;;
15667;SDS011;7934;48.710;9.024;2023-02-24T13:16:43;23.23;;;8.57;;
15667;SDS011;7934;48.710;9.024;2023-02-24T13:19:17;14.90;;;7.17;;
15667;SDS011;7934;48.710;9.024;2023-02-24T13:21:55;20.17;;;6.37;;
15667;SDS011;7934;48.710;9.024;2023-02-24T13:24:23;19.27;;;7.97;;
15667;SDS011;7934;48.710;9.024;2023-02-24T13:26:51;20.70;;;7.83;;
15667;SDS011;7934;48.710;9.024;2023-02-24T13:29:40;16.27;;;7.00;;
15667;SDS011;7934;48.710;9.024;2023-02-24T13:32:19;21.93;;;7.57;;
15667;SDS011;7934;48.710;9.024;2023-02-24T13:34:49;23.43;;;7.70;;
15667;SDS011;7934;48.710;9.024;2023-02-24T13:37:24;21.10;;;7.43;;
15667;SDS011;7934;48.710;9.024;2023-02-24T13:39:54;14.17;;;7.20;;
15667;SDS011;7934;48.710;9.024;2023-02-24T13:42:22;22.93;;;6.63;;
15667;SDS011;7934;48.710;9.024;2023-02-24T13:44:52;22.63;;;7.60;;
15667;SDS011;7934;48.710;9.024;2023-02-24T13:47:30;18.87;;;6.80;;
15667;SDS011;7934;48.710;9.024;2023-02-24T13:50:04;18.80;;;7.07;;
15667;SDS011;7934;48.710;9.024;2023-02-24T13:52:40;22.20;;;8.00;;
15667;SDS011;7934;48.710;9.024;2023-02-24T13:55:15;12.63;;;6.43;;
15667;SDS011;7934;48.710;9.024;2023-02-24T13:57:52;13.87;;;6.83;;
15667;SDS011;7934;48.710;9.024;2023-02-24T14:00:27;23.23;;;6.83;;
15667;SDS011;7934;48.710;9.024;2023-02-24T14:02:57;14.93;;;6.63;;
15667;SDS011;7934;48.710;9.024;2023-02-24T14:05:26;13.60;;;7.37;;
15667;SDS011;7934;48.710;9.024;2023-02-24T14:07:54;20.53;;;6.87;;
15667;SDS011;7934;48.710;9.024;2023-02-24T14:10:22;13.80;;;6.00;;
15667;SDS011;7934;48.710;9.024;2023-02-24T14:12:50;18.47;;;6.47;;
15667;SDS011;7934;48.710;9.024;2023-02-24T14:15:23;14.87;;;5.63;;
15667;SDS011;7934;48.710;9.024;2023-02-24T14:17:55;17.20;;;5.83;;
15667;SDS011;7934;48.710;9.024;2023-02-24T14:20:24;16.43;;;6.80;;
15667;SDS011;7934;48.710;9.024;2023-02-24T14:22:53;13.47;;;5.47;;
15667;SDS011;7934;48.710;9.024;2023-02-24T14:25:20;15.03;;;5.80;;
15667;SDS011;7934;48.710;9.024;2023-02-24T14:27:48;12.57;;;5.83;;
15667;SDS011;7934;48.710;9.024;2023-02-24T14:30:20;16.77;;;5.87;;
15667;SDS011;7934;48.710;9.024;2023-02-24T14:32:51;18.33;;;6.40;;
15667;SDS011;7934;48.710;9.024;2023-02-24T14:35:22;12.87;;;6.23;;
15667;SDS011;7934;48.710;9.024;2023-02-24T14:37:51;18.67;;;6.90;;
15667;SDS011;7934;48.710;9.024;2023-02-24T14:40:18;22.23;;;6.33;;
15667;SDS011;7934;48.710;9.024;2023-02-24T14:42:49;19.07;;;6.87;;
15667;SDS011;7934;48.710;9.024;2023-02-24T14:45:26;10.10;;;6.27;;
15667;SDS011;7934;48.710;9.024;2023-02-24T14:47:53;15.50;;;6.90;;
15667;SDS011;7934;48.710;9.024;2023-02-24T14:50:23;17.63;;;7.27;;
15667;SDS011;7934;48.710;9.024;2023-02-24T14:52:52;21.17;;;6.30;;
15667;SDS011;7934;48.710;9.024;2023-02-24T14:55:22;11.50;;;6.73;;
15667;SDS011;7934;48.710;9.024;2023-02-24T14:57:51;22.57;;;6.93;;
15667;SDS011;7934;48.710;9.024;2023-02-24T15:00:22;15.50;;;6.83;;
15667;SDS011;7934;48.710;9.024;2023-02-24T15:02:51;16.90;;;7.60;;
15667;SDS011;7934;48.710;9.024;2023-02-24T15:05:19;16.60;;;6.70;;
15667;SDS011;7934;48.710;9.024;2023-02-24T15:07:48;18.23;;;7.00;;
15667;SDS011;7934;48.710;9.024;2023-02-24T15:10:24;14.80;;;6.33;;